Big Powderhorn Mountain, Michigan
Current Conditions -  °F | °C
As of 8:35 AM on Sunday 23 Nov 2014 (Local Time) from KIWD Reporting Station
Overcast Overcast  
Wind Chill: 38°   Ceiling: 400
Heat Index: 45°   Visibility: 3mi
Dew Point: 45°   Wind: 14mph
Humidity: 100%   Direction: 200°SSW
Pressure: 29.42"   Gusts: 20mph
Location:  46.53°N, 90.1°W
Report Text: KIWD 231435Z AUTO 20012G17KT 3SM OVC004 07/07 A2942 RMK AO1
Loading
Personal Weather Stations






























Interactive Weather Map New forecast layout! Learn more

10-Day Weather Forecast

Advertisements
Track Severe Weather on mobile